createdAt,value
2023-02-27T00:00:55.469Z,-3.24
2023-02-27T00:01:48.762Z,-3.30
2023-02-27T00:02:46.972Z,-3.33
2023-02-27T00:03:46.925Z,-3.45
2023-02-27T00:04:46.898Z,-3.48
2023-02-27T00:05:46.908Z,-3.54
2023-02-27T00:06:46.853Z,-3.48
2023-02-27T00:07:46.893Z,-3.42
2023-02-27T00:08:46.928Z,-3.31
2023-02-27T00:09:46.867Z,-3.28
2023-02-27T00:10:46.795Z,-3.28
2023-02-27T00:11:46.871Z,-3.27
2023-02-27T00:12:46.812Z,-3.36
2023-02-27T00:13:46.787Z,-3.36
2023-02-27T00:14:46.772Z,-3.33
2023-02-27T00:15:46.836Z,-3.28
2023-02-27T00:16:46.755Z,-3.28
2023-02-27T00:17:46.755Z,-3.25
2023-02-27T00:18:46.730Z,-3.27
2023-02-27T00:19:46.762Z,-3.28
2023-02-27T00:20:46.735Z,-3.38
2023-02-27T00:21:46.731Z,-3.38
2023-02-27T00:22:46.684Z,-3.39
2023-02-27T00:23:46.720Z,-3.36
2023-02-27T00:24:46.656Z,-3.38
2023-02-27T00:25:46.744Z,-3.43
2023-02-27T00:26:46.651Z,-3.46
2023-02-27T00:27:46.679Z,-3.56
2023-02-27T00:28:46.653Z,-3.60
2023-02-27T00:29:46.631Z,-3.63
2023-02-27T00:30:46.730Z,-3.63
2023-02-27T00:31:46.716Z,-3.69
2023-02-27T00:32:46.611Z,-3.72
2023-02-27T00:33:46.618Z,-3.76
2023-02-27T00:34:46.558Z,-3.83
2023-02-27T00:35:46.545Z,-3.88
2023-02-27T00:36:46.539Z,-3.93
2023-02-27T00:37:46.524Z,-3.94
2023-02-27T00:38:46.518Z,-3.96
2023-02-27T00:39:46.504Z,-4.00
2023-02-27T00:40:46.509Z,-3.97
2023-02-27T00:41:46.509Z,-4.00
2023-02-27T00:42:46.457Z,-4.00
2023-02-27T00:43:46.469Z,-4.03
2023-02-27T00:44:46.448Z,-4.01
2023-02-27T00:45:46.482Z,-3.99
2023-02-27T00:46:46.532Z,-4.01
2023-02-27T00:47:46.429Z,-4.04
2023-02-27T00:48:46.408Z,-4.03
2023-02-27T00:49:46.414Z,-4.04
2023-02-27T00:50:46.585Z,-3.99
2023-02-27T00:51:46.404Z,-3.96
2023-02-27T00:52:46.365Z,-3.93
2023-02-27T00:53:46.376Z,-3.88
2023-02-27T00:54:46.352Z,-3.81
2023-02-27T00:55:46.341Z,-3.76
2023-02-27T00:56:46.311Z,-3.64
2023-02-27T00:57:46.384Z,-3.59
2023-02-27T00:58:46.300Z,-3.56
2023-02-27T00:59:46.304Z,-3.53
2023-02-27T01:00:46.355Z,-3.53
2023-02-27T01:01:46.311Z,-3.57
2023-02-27T01:02:46.325Z,-3.67
2023-02-27T01:03:46.296Z,-3.75
2023-02-27T01:04:46.229Z,-3.82
2023-02-27T01:05:46.239Z,-3.83
2023-02-27T01:06:46.229Z,-3.82
2023-02-27T01:07:46.230Z,-3.85
2023-02-27T01:08:46.222Z,-3.90
2023-02-27T01:09:46.226Z,-3.96
2023-02-27T01:10:46.194Z,-4.04
2023-02-27T01:11:46.212Z,-4.04
2023-02-27T01:12:46.169Z,-4.01
2023-02-27T01:13:46.189Z,-3.86
2023-02-27T01:14:46.165Z,-3.79
2023-02-27T01:15:46.158Z,-3.72
2023-02-27T01:16:46.177Z,-3.67
2023-02-27T01:17:46.110Z,-3.64
2023-02-27T01:18:46.153Z,-3.66
2023-02-27T01:19:46.136Z,-3.69
2023-02-27T01:20:46.102Z,-3.66
2023-02-27T01:21:46.196Z,-3.63
2023-02-27T01:22:46.076Z,-3.62
2023-02-27T01:23:46.094Z,-3.63
2023-02-27T01:24:46.032Z,-3.62
2023-02-27T01:25:46.063Z,-3.60
2023-02-27T01:26:46.024Z,-3.60
2023-02-27T01:27:46.010Z,-3.60
2023-02-27T01:28:46.028Z,-3.63
2023-02-27T01:29:46.007Z,-3.62
2023-02-27T01:30:46.026Z,-3.63
2023-02-27T01:31:46.094Z,-3.67
2023-02-27T01:32:46.020Z,-3.75
2023-02-27T01:33:45.988Z,-3.82
2023-02-27T01:34:45.945Z,-3.85
2023-02-27T01:35:45.954Z,-3.83
2023-02-27T01:36:45.927Z,-3.86
2023-02-27T01:37:45.953Z,-3.82
2023-02-27T01:38:45.909Z,-3.83
2023-02-27T01:39:45.889Z,-3.86
2023-02-27T01:40:45.903Z,-3.94
2023-02-27T01:41:45.868Z,-3.99
2023-02-27T01:42:45.878Z,-3.97
2023-02-27T01:43:45.915Z,-3.99
2023-02-27T01:44:45.860Z,-3.91
2023-02-27T01:45:45.901Z,-3.90
2023-02-27T01:46:45.837Z,-3.91
2023-02-27T01:47:45.826Z,-3.96
2023-02-27T01:48:45.783Z,-3.99
2023-02-27T01:49:45.802Z,-4.04
2023-02-27T01:50:45.803Z,-4.12
2023-02-27T01:51:45.826Z,-4.17
2023-02-27T01:52:46.017Z,-4.22
2023-02-27T01:53:45.762Z,-4.29
2023-02-27T01:54:45.772Z,-4.30
2023-02-27T01:55:45.764Z,-4.36
2023-02-27T01:56:45.729Z,-4.36
2023-02-27T01:57:45.730Z,-4.36
2023-02-27T01:58:45.708Z,-4.40
2023-02-27T01:59:45.709Z,-4.46
2023-02-27T02:00:45.656Z,-4.43
2023-02-27T02:01:45.735Z,-4.39
2023-02-27T02:02:45.650Z,-4.35
2023-02-27T02:03:45.662Z,-4.33
2023-02-27T02:04:45.642Z,-4.30
2023-02-27T02:05:45.695Z,-4.32
2023-02-27T02:06:45.609Z,-4.36
2023-02-27T02:07:45.606Z,-4.35
2023-02-27T02:08:45.600Z,-4.35
2023-02-27T02:09:45.597Z,-4.38
2023-02-27T02:10:45.575Z,-4.36
2023-02-27T02:11:45.596Z,-4.36
2023-02-27T02:12:45.573Z,-4.39
2023-02-27T02:13:45.561Z,-4.46
2023-02-27T02:14:45.541Z,-4.47
2023-02-27T02:15:45.538Z,-4.49
2023-02-27T02:16:45.604Z,-4.53
2023-02-27T02:17:45.529Z,-4.54
2023-02-27T02:18:45.491Z,-4.61
2023-02-27T02:19:45.502Z,-4.65
2023-02-27T02:20:45.477Z,-4.67
2023-02-27T02:21:45.469Z,-4.69
2023-02-27T02:22:45.458Z,-4.72
2023-02-27T02:23:45.506Z,-4.68
2023-02-27T02:24:45.440Z,-4.63
2023-02-27T02:25:45.477Z,-4.61
2023-02-27T02:26:45.447Z,-4.58
2023-02-27T02:27:45.414Z,-4.57
2023-02-27T02:28:45.416Z,-4.53
2023-02-27T02:29:45.429Z,-4.51
2023-02-27T02:30:45.442Z,-4.57
2023-02-27T02:31:45.571Z,-4.60
2023-02-27T02:32:45.342Z,-4.67
2023-02-27T02:33:45.385Z,-4.69
2023-02-27T02:34:45.339Z,-4.71
2023-02-27T02:35:45.362Z,-4.71
2023-02-27T02:36:45.331Z,-4.75
2023-02-27T02:37:45.337Z,-4.75
2023-02-27T02:38:45.323Z,-4.79
2023-02-27T02:39:45.314Z,-4.79
2023-02-27T02:40:45.284Z,-4.79
2023-02-27T02:41:45.293Z,-4.77
2023-02-27T02:42:45.254Z,-4.72
2023-02-27T02:43:45.290Z,-4.69
2023-02-27T02:44:45.240Z,-4.61
2023-02-27T02:45:45.289Z,-4.58
2023-02-27T02:46:45.232Z,-4.58
2023-02-27T02:47:45.219Z,-4.63
2023-02-27T02:48:45.213Z,-4.69
2023-02-27T02:49:45.186Z,-4.74
2023-02-27T02:50:45.183Z,-4.75
2023-02-27T02:51:45.190Z,-4.85
2023-02-27T02:52:45.168Z,-4.86
2023-02-27T02:53:45.177Z,-4.89
2023-02-27T02:54:45.370Z,-4.96
2023-02-27T02:55:45.132Z,-4.97
2023-02-27T02:56:45.122Z,-5.03
2023-02-27T02:57:45.142Z,-5.04
2023-02-27T02:58:45.126Z,-5.06
2023-02-27T02:59:45.120Z,-5.08
2023-02-27T03:00:45.104Z,-5.08
2023-02-27T03:01:45.156Z,-5.11
2023-02-27T03:02:45.064Z,-5.18
2023-02-27T03:03:45.068Z,-5.19
2023-02-27T03:04:45.166Z,-5.18
2023-02-27T03:05:45.071Z,-5.26
2023-02-27T03:06:45.031Z,-5.33
2023-02-27T03:07:45.072Z,-5.37
2023-02-27T03:08:45.005Z,-5.43
2023-02-27T03:09:45.019Z,-5.44
2023-02-27T03:10:45.038Z,-5.47
2023-02-27T03:11:45.017Z,-5.47
2023-02-27T03:12:45.005Z,-5.39
2023-02-27T03:13:44.984Z,-5.37
2023-02-27T03:14:44.951Z,-5.32
2023-02-27T03:15:45.029Z,-5.22
2023-02-27T03:16:44.932Z,-5.23
2023-02-27T03:17:44.936Z,-5.22
2023-02-27T03:18:44.928Z,-5.26
2023-02-27T03:19:44.902Z,-5.29
2023-02-27T03:20:44.875Z,-5.29
2023-02-27T03:21:44.897Z,-5.29
2023-02-27T03:22:44.853Z,-5.35
2023-02-27T03:23:44.867Z,-5.37
2023-02-27T03:24:44.851Z,-5.43
2023-02-27T03:25:44.858Z,-5.48
2023-02-27T03:26:44.828Z,-5.50
2023-02-27T03:27:44.826Z,-5.53
2023-02-27T03:28:44.803Z,-5.54
2023-02-27T03:29:44.809Z,-5.55
2023-02-27T03:30:44.901Z,-5.53
2023-02-27T03:31:44.845Z,-5.44
2023-02-27T03:32:44.766Z,-5.36
2023-02-27T03:33:44.766Z,-5.27
2023-02-27T03:34:44.737Z,-5.25
2023-02-27T03:35:44.777Z,-5.19
2023-02-27T03:36:44.728Z,-5.18
2023-02-27T03:37:44.767Z,-5.17
2023-02-27T03:38:44.684Z,-5.13
2023-02-27T03:39:44.682Z,-5.11
2023-02-27T03:40:44.692Z,-5.08
2023-02-27T03:41:44.672Z,-5.08
2023-02-27T03:42:44.695Z,-5.08
2023-02-27T03:43:44.673Z,-5.08
2023-02-27T03:44:44.646Z,-5.10
2023-02-27T03:45:44.648Z,-5.10
2023-02-27T03:46:44.714Z,-5.11
2023-02-27T03:47:44.634Z,-5.10
2023-02-27T03:48:44.754Z,-5.11
2023-02-27T03:49:44.609Z,-5.11
2023-02-27T03:50:44.580Z,-5.13
2023-02-27T03:51:44.573Z,-5.18
2023-02-27T03:52:44.574Z,-5.19
2023-02-27T03:53:44.588Z,-5.23
2023-02-27T03:54:44.542Z,-5.25
2023-02-27T03:55:44.808Z,-5.23
2023-02-27T03:56:44.516Z,-5.26
2023-02-27T03:57:44.521Z,-5.30
2023-02-27T03:58:44.489Z,-5.33
2023-02-27T03:59:44.484Z,-5.32
2023-02-27T04:00:44.490Z,-5.30
2023-02-27T04:01:44.546Z,-5.36
2023-02-27T04:02:44.490Z,-5.37
2023-02-27T04:03:44.452Z,-5.30
2023-02-27T04:04:44.440Z,-5.27
2023-02-27T04:05:44.434Z,-5.26
2023-02-27T04:06:44.405Z,-5.22
2023-02-27T04:07:44.427Z,-5.10
2023-02-27T04:08:44.376Z,-5.04
2023-02-27T04:09:44.398Z,-4.99
2023-02-27T04:10:44.376Z,-4.99
2023-02-27T04:11:44.354Z,-4.99
2023-02-27T04:12:45.873Z,-5.04
2023-02-27T04:13:44.379Z,-5.08
2023-02-27T04:14:44.382Z,-5.08
2023-02-27T04:15:44.411Z,-5.17
2023-02-27T04:16:44.333Z,-5.22
2023-02-27T04:17:44.320Z,-5.27
2023-02-27T04:18:44.302Z,-5.30
2023-02-27T04:19:44.300Z,-5.35
2023-02-27T04:20:44.311Z,-5.39
2023-02-27T04:21:44.275Z,-5.43
2023-02-27T04:22:44.265Z,-5.50
2023-02-27T04:23:44.229Z,-5.55
2023-02-27T04:24:44.228Z,-5.59
2023-02-27T04:25:44.235Z,-5.61
2023-02-27T04:26:44.359Z,-5.59
2023-02-27T04:27:44.212Z,-5.59
2023-02-27T04:28:44.211Z,-5.53
2023-02-27T04:29:44.207Z,-5.48
2023-02-27T04:30:44.218Z,-5.50
2023-02-27T04:31:44.423Z,-5.51
2023-02-27T04:32:44.219Z,-5.54
2023-02-27T04:33:44.190Z,-5.59
2023-02-27T04:34:44.146Z,-5.62
2023-02-27T04:35:44.148Z,-5.59
2023-02-27T04:36:44.137Z,-5.57
2023-02-27T04:37:44.156Z,-5.51
2023-02-27T04:38:44.118Z,-5.48
2023-02-27T04:39:44.112Z,-5.36
2023-02-27T04:40:44.107Z,-5.26
2023-02-27T04:41:44.079Z,-5.17
2023-02-27T04:42:44.077Z,-5.11
2023-02-27T04:43:44.059Z,-5.06
2023-02-27T04:44:44.092Z,-5.03
2023-02-27T04:45:44.105Z,-5.03
2023-02-27T04:46:44.024Z,-5.00
2023-02-27T04:47:44.084Z,-5.03
2023-02-27T04:48:51.552Z,-5.00
2023-02-27T04:49:52.534Z,-5.00
2023-02-27T04:50:44.000Z,-5.04
2023-02-27T04:51:52.517Z,-5.04
2023-02-27T04:52:52.689Z,-5.03
2023-02-27T04:53:43.949Z,-4.99
2023-02-27T04:54:51.450Z,-4.99
2023-02-27T04:55:43.932Z,-4.99
2023-02-27T04:56:43.929Z,-5.03
2023-02-27T05:00:02.428Z,-5.06
2023-02-27T05:01:11.953Z,-5.08
2023-02-27T05:02:10.001Z,-5.10
2023-02-27T05:03:02.410Z,-5.13
2023-02-27T05:04:02.400Z,-5.23
2023-02-27T05:07:19.017Z,-5.27
2023-02-27T05:08:19.004Z,-5.30
2023-02-27T05:09:18.972Z,-5.30
2023-02-27T05:10:18.968Z,-5.29
2023-02-27T05:11:18.951Z,-5.32
2023-02-27T05:12:18.965Z,-5.30
2023-02-27T05:13:18.953Z,-5.35
2023-02-27T05:14:18.974Z,-5.39
2023-02-27T05:15:18.914Z,-5.46
2023-02-27T05:16:18.945Z,-5.54
2023-02-27T05:17:18.886Z,-5.57
2023-02-27T05:18:18.923Z,-5.59
2023-02-27T05:19:18.890Z,-5.62
2023-02-27T05:20:18.876Z,-5.61
2023-02-27T05:21:18.865Z,-5.55
2023-02-27T05:22:27.575Z,-5.55
2023-02-27T05:23:28.386Z,-5.59
2023-02-27T05:24:26.357Z,-5.62
2023-02-27T05:25:18.824Z,-5.59
2023-02-27T05:26:18.820Z,-5.57
2023-02-27T05:27:25.873Z,-5.61
2023-02-27T05:28:18.813Z,-5.54
2023-02-27T05:29:18.786Z,-5.50
2023-02-27T05:30:18.794Z,-5.46
2023-02-27T05:31:18.791Z,-5.46
2023-02-27T05:32:18.953Z,-5.47
2023-02-27T05:33:18.745Z,-5.50
2023-02-27T05:34:18.745Z,-5.48
2023-02-27T05:35:18.729Z,-5.51
2023-02-27T05:36:18.726Z,-5.53
2023-02-27T05:37:18.707Z,-5.50
2023-02-27T05:38:18.720Z,-5.57
2023-02-27T05:39:18.650Z,-5.64
2023-02-27T05:40:18.684Z,-5.69
2023-02-27T05:41:18.659Z,-5.72
2023-02-27T05:42:18.664Z,-5.76
2023-02-27T05:43:18.663Z,-5.80
2023-02-27T05:44:18.625Z,-5.84
2023-02-27T05:45:18.627Z,-5.86
2023-02-27T05:46:18.658Z,-5.87
2023-02-27T05:47:18.599Z,-5.87
2023-02-27T05:48:19.860Z,-5.79
2023-02-27T05:49:18.592Z,-5.59
2023-02-27T05:50:18.579Z,-5.46
2023-02-27T05:51:18.564Z,-5.41
2023-02-27T05:52:18.579Z,-5.43
2023-02-27T05:53:18.545Z,-5.46
2023-02-27T05:54:18.566Z,-5.46
2023-02-27T05:55:18.955Z,-5.48
2023-02-27T05:56:18.520Z,-5.48
2023-02-27T05:57:18.501Z,-5.44
2023-02-27T05:58:18.587Z,-5.37
2023-02-27T05:59:18.492Z,-5.37
2023-02-27T06:00:18.510Z,-5.37
2023-02-27T06:01:18.469Z,-5.46
2023-02-27T06:02:18.447Z,-5.50
2023-02-27T06:03:18.478Z,-5.47
2023-02-27T06:04:18.441Z,-5.48
2023-02-27T06:05:18.421Z,-5.50
2023-02-27T06:06:18.420Z,-5.54
2023-02-27T06:07:18.404Z,-5.57
2023-02-27T06:08:18.396Z,-5.55
2023-02-27T06:09:18.387Z,-5.53
2023-02-27T06:10:18.417Z,-5.50
2023-02-27T06:11:18.355Z,-5.53
2023-02-27T06:12:18.348Z,-5.51
2023-02-27T06:13:18.337Z,-5.54
2023-02-27T06:14:18.342Z,-5.51
2023-02-27T06:15:18.362Z,-5.54
2023-02-27T06:16:18.378Z,-5.57
2023-02-27T06:17:18.336Z,-5.59
2023-02-27T06:18:18.285Z,-5.62
2023-02-27T06:19:18.279Z,-5.65
2023-02-27T06:20:18.288Z,-5.71
2023-02-27T06:21:18.306Z,-5.76
2023-02-27T06:22:18.268Z,-5.80
2023-02-27T06:23:18.250Z,-5.79
2023-02-27T06:24:18.241Z,-5.76
2023-02-27T06:25:18.213Z,-5.72
2023-02-27T06:26:18.242Z,-5.71
2023-02-27T06:27:18.199Z,-5.74
2023-02-27T06:28:18.200Z,-5.76
2023-02-27T06:29:18.210Z,-5.79
2023-02-27T06:30:18.188Z,-5.76
2023-02-27T06:31:18.236Z,-5.74
2023-02-27T06:32:18.222Z,-5.72
2023-02-27T06:33:18.138Z,-5.76
2023-02-27T06:34:18.140Z,-5.74
2023-02-27T06:35:18.110Z,-5.74
2023-02-27T06:36:18.117Z,-5.72
2023-02-27T06:37:18.096Z,-5.72
2023-02-27T06:38:18.087Z,-5.69
2023-02-27T06:39:18.078Z,-5.65
2023-02-27T06:40:18.067Z,-5.61
2023-02-27T06:41:18.037Z,-5.51
2023-02-27T06:42:18.064Z,-5.44
2023-02-27T06:43:18.039Z,-5.32
2023-02-27T06:44:19.531Z,-5.25
2023-02-27T06:45:18.076Z,-5.19
2023-02-27T06:46:18.268Z,-5.18
2023-02-27T06:47:18.029Z,-5.18
2023-02-27T06:48:17.989Z,-5.23
2023-02-27T06:49:17.964Z,-5.23
2023-02-27T06:50:17.970Z,-5.18
2023-02-27T06:51:17.947Z,-5.11
2023-02-27T06:52:17.992Z,-5.06
2023-02-27T06:53:17.938Z,-5.06
2023-02-27T06:54:17.979Z,-4.97
2023-02-27T06:55:18.009Z,-4.97
2023-02-27T06:56:17.914Z,-4.93
2023-02-27T06:57:17.900Z,-4.95
2023-02-27T06:58:17.882Z,-4.95
2023-02-27T06:59:17.866Z,-4.90
2023-02-27T07:00:18.055Z,-4.89
2023-02-27T07:01:17.891Z,-4.81
2023-02-27T07:02:17.844Z,-4.77
2023-02-27T07:03:17.818Z,-4.71
2023-02-27T07:04:17.871Z,-4.69
2023-02-27T07:05:17.806Z,-4.61
2023-02-27T07:06:17.813Z,-4.57
2023-02-27T07:07:32.284Z,-4.47
2023-02-27T07:08:18.839Z,-4.36
2023-02-27T07:09:17.760Z,-4.29
2023-02-27T07:10:17.767Z,-4.22
2023-02-27T07:11:17.744Z,-4.17
2023-02-27T07:12:17.746Z,-4.11
2023-02-27T07:13:19.530Z,-4.00
2023-02-27T07:14:17.743Z,-3.85
2023-02-27T07:15:17.700Z,-3.60
2023-02-27T07:16:17.767Z,-3.24
2023-02-27T07:17:17.710Z,-2.97
2023-02-27T07:18:17.693Z,-2.81
2023-02-27T07:19:17.713Z,-2.56
2023-02-27T07:20:17.693Z,-2.43
2023-02-27T07:21:17.643Z,-2.34
2023-02-27T07:22:17.637Z,-2.32
2023-02-27T07:23:17.640Z,-2.35
2023-02-27T07:24:17.621Z,-2.37
2023-02-27T07:25:17.606Z,-2.43
2023-02-27T07:26:17.609Z,-2.55
2023-02-27T07:27:17.589Z,-2.60
2023-02-27T07:28:17.609Z,-2.70
2023-02-27T07:29:17.585Z,-2.73
2023-02-27T07:30:17.588Z,-2.71
2023-02-27T07:31:17.694Z,-2.74
2023-02-27T07:32:17.614Z,-2.77
2023-02-27T07:33:17.526Z,-2.79
2023-02-27T07:34:17.513Z,-2.77
2023-02-27T07:35:17.541Z,-2.68
2023-02-27T07:36:17.505Z,-2.64
2023-02-27T07:37:17.487Z,-2.55
2023-02-27T07:38:17.508Z,-2.49
2023-02-27T07:39:17.476Z,-2.42
2023-02-27T07:40:17.475Z,-2.30
2023-02-27T07:41:29.505Z,-2.20
2023-02-27T07:42:18.444Z,-2.06
2023-02-27T07:43:17.464Z,-1.94
2023-02-27T07:44:17.439Z,-1.85
2023-02-27T07:45:17.416Z,-1.84
2023-02-27T07:46:17.469Z,-1.79
2023-02-27T07:47:17.387Z,-1.74
2023-02-27T07:48:17.395Z,-1.64
2023-02-27T07:49:17.359Z,-1.55
2023-02-27T07:50:17.392Z,-1.54
2023-02-27T07:51:17.351Z,-1.54
2023-02-27T07:52:17.340Z,-1.54
2023-02-27T07:53:17.316Z,-1.55
2023-02-27T07:54:17.384Z,-1.56
2023-02-27T07:55:17.325Z,-1.54
2023-02-27T07:56:17.302Z,-1.46
2023-02-27T07:57:17.285Z,-1.41
2023-02-27T07:58:17.287Z,-1.38
2023-02-27T07:59:17.272Z,-1.35
2023-02-27T08:00:17.318Z,-1.33
2023-02-27T08:01:17.274Z,-1.20
2023-02-27T08:02:17.451Z,-1.12
2023-02-27T08:03:17.227Z,-1.01
2023-02-27T08:04:17.262Z,-0.89
2023-02-27T08:05:17.208Z,-0.75
2023-02-27T08:06:17.222Z,-0.60
2023-02-27T08:07:17.191Z,-0.43
2023-02-27T08:08:17.225Z,-0.26
2023-02-27T08:09:17.230Z,0.02
2023-02-27T08:10:17.187Z,0.29
2023-02-27T08:11:17.152Z,0.57
2023-02-27T08:12:17.189Z,0.97
2023-02-27T08:13:24.995Z,1.47
2023-02-27T08:14:18.121Z,1.88
2023-02-27T08:15:17.110Z,2.42
2023-02-27T08:16:17.330Z,3.05
2023-02-27T08:17:17.114Z,3.69
2023-02-27T08:18:17.081Z,4.18
2023-02-27T08:19:17.076Z,4.45
2023-02-27T08:20:17.059Z,4.77
2023-02-27T08:21:17.091Z,5.09
2023-02-27T08:22:17.036Z,5.39
2023-02-27T08:23:17.022Z,5.46
2023-02-27T08:24:17.014Z,5.58
2023-02-27T08:25:17.021Z,5.74
2023-02-27T08:26:16.978Z,5.57
2023-02-27T08:27:16.990Z,5.53
2023-02-27T08:28:16.963Z,5.30
2023-02-27T08:29:17.136Z,5.04
2023-02-27T08:30:16.957Z,4.65
2023-02-27T08:31:16.968Z,4.12
2023-02-27T08:32:17.028Z,3.42
2023-02-27T08:33:16.944Z,2.77
2023-02-27T08:34:16.899Z,2.34
2023-02-27T08:35:16.905Z,2.20
2023-02-27T08:36:16.890Z,2.14
2023-02-27T08:37:16.893Z,2.05
2023-02-27T08:38:16.859Z,2.05
2023-02-27T08:39:16.881Z,2.03
2023-02-27T08:40:16.880Z,2.07
2023-02-27T08:41:16.842Z,2.12
2023-02-27T08:42:16.807Z,2.17
2023-02-27T08:43:16.812Z,2.23
2023-02-27T08:44:16.805Z,2.25
2023-02-27T08:45:16.787Z,2.30
2023-02-27T08:46:16.758Z,2.24
2023-02-27T08:47:16.755Z,2.25
2023-02-27T08:48:16.750Z,2.30
2023-02-27T08:49:16.755Z,2.35
2023-02-27T08:50:16.738Z,2.31
2023-02-27T08:51:16.748Z,2.27
2023-02-27T08:52:16.728Z,2.28
2023-02-27T08:53:16.704Z,2.31
2023-02-27T08:54:16.672Z,2.27
2023-02-27T08:55:16.713Z,2.30
2023-02-27T08:56:16.686Z,2.38
2023-02-27T08:57:16.682Z,2.43
2023-02-27T08:58:18.060Z,2.52
2023-02-27T08:59:16.643Z,2.64
2023-02-27T09:00:16.760Z,2.67
2023-02-27T09:01:16.731Z,2.72
2023-02-27T09:02:16.596Z,2.79
2023-02-27T09:03:16.666Z,2.90
2023-02-27T09:04:16.599Z,3.00
2023-02-27T09:05:16.575Z,3.05
2023-02-27T09:06:16.566Z,3.14
2023-02-27T09:07:16.584Z,3.24
2023-02-27T09:08:16.544Z,3.36
2023-02-27T09:09:16.575Z,3.50
2023-02-27T09:10:16.522Z,3.57
2023-02-27T09:11:16.533Z,3.66
2023-02-27T09:12:16.491Z,3.78
2023-02-27T09:13:16.502Z,3.93
2023-02-27T09:14:16.485Z,4.16
2023-02-27T09:15:16.479Z,4.30
2023-02-27T09:16:16.620Z,4.42
2023-02-27T09:17:16.471Z,4.60
2023-02-27T09:18:16.435Z,4.82
2023-02-27T09:19:16.433Z,5.02
2023-02-27T09:20:16.411Z,5.07
2023-02-27T09:21:16.424Z,5.21
2023-02-27T09:22:16.412Z,5.38
2023-02-27T09:23:16.396Z,5.48
2023-02-27T09:24:20.461Z,5.57
2023-02-27T09:25:16.401Z,5.75
2023-02-27T09:26:16.347Z,5.75
2023-02-27T09:27:16.354Z,5.79
2023-02-27T09:28:16.345Z,5.93
2023-02-27T09:29:16.346Z,5.91
2023-02-27T09:30:16.313Z,6.00
2023-02-27T09:31:16.387Z,6.15
2023-02-27T09:32:16.394Z,6.33
2023-02-27T09:33:16.284Z,6.33
2023-02-27T09:34:16.550Z,6.73
2023-02-27T09:35:16.276Z,7.20
2023-02-27T09:36:16.257Z,7.43
2023-02-27T09:37:16.258Z,7.97
2023-02-27T09:38:16.216Z,8.34
2023-02-27T09:39:16.214Z,8.71
2023-02-27T09:40:16.214Z,9.15
2023-02-27T09:41:16.209Z,9.68
2023-02-27T09:42:16.175Z,10.08
2023-02-27T09:43:16.258Z,10.51
2023-02-27T09:44:16.184Z,10.92
2023-02-27T09:45:16.168Z,11.49
2023-02-27T09:46:16.241Z,12.17
2023-02-27T09:47:16.136Z,12.71
2023-02-27T09:48:16.147Z,12.97
2023-02-27T09:49:16.126Z,13.01
2023-02-27T09:50:16.114Z,13.03
2023-02-27T09:51:16.099Z,13.14
2023-02-27T09:52:16.110Z,12.87
2023-02-27T09:53:16.088Z,12.87
2023-02-27T09:54:16.055Z,13.08
2023-02-27T09:55:16.056Z,12.56
2023-02-27T09:56:16.029Z,12.52
2023-02-27T09:57:16.055Z,12.59
2023-02-27T09:58:16.018Z,12.62
2023-02-27T09:59:16.007Z,12.56
2023-02-27T10:00:15.996Z,12.54
2023-02-27T10:01:15.998Z,12.37
2023-02-27T10:02:16.009Z,12.23
2023-02-27T10:03:16.028Z,12.19
2023-02-27T10:04:15.943Z,12.12
2023-02-27T10:05:16.089Z,11.94
2023-02-27T10:06:15.913Z,11.52
2023-02-27T10:07:15.925Z,11.49
2023-02-27T10:08:15.897Z,11.43
2023-02-27T10:09:15.928Z,10.96
2023-02-27T10:10:15.898Z,10.45
2023-02-27T10:11:15.892Z,9.48
2023-02-27T10:12:15.890Z,8.58
2023-02-27T10:13:15.880Z,7.92
2023-02-27T10:14:15.843Z,7.30
2023-02-27T10:15:15.845Z,6.81
2023-02-27T10:16:15.824Z,6.67
2023-02-27T10:17:15.815Z,6.38
2023-02-27T10:18:26.101Z,6.38
2023-02-27T10:19:16.809Z,6.54
2023-02-27T10:20:15.766Z,7.15
2023-02-27T10:21:15.774Z,7.87
2023-02-27T10:22:15.750Z,8.28
2023-02-27T10:23:15.772Z,8.48
2023-02-27T10:24:15.766Z,8.45
2023-02-27T10:25:30.145Z,8.40
2023-02-27T10:26:16.727Z,8.16
2023-02-27T10:27:15.709Z,8.08
2023-02-27T10:28:15.712Z,7.89
2023-02-27T10:29:15.679Z,7.57
2023-02-27T10:30:23.608Z,7.25
2023-02-27T10:31:16.773Z,6.95
2023-02-27T10:32:15.724Z,6.77
2023-02-27T10:33:15.650Z,6.79
2023-02-27T10:34:15.636Z,6.61
2023-02-27T10:35:15.644Z,6.59
2023-02-27T10:36:30.677Z,6.48
2023-02-27T10:37:16.639Z,6.36
2023-02-27T10:38:15.589Z,6.43
2023-02-27T10:39:15.621Z,6.46
2023-02-27T10:40:15.571Z,6.52
2023-02-27T10:41:15.562Z,6.51
2023-02-27T10:42:15.536Z,6.59
2023-02-27T10:43:15.570Z,6.56
2023-02-27T10:44:15.542Z,6.40
2023-02-27T10:45:15.518Z,6.31
2023-02-27T10:46:15.558Z,6.31
2023-02-27T10:47:15.506Z,6.43
2023-02-27T10:48:15.480Z,6.55
2023-02-27T10:49:17.588Z,6.64
2023-02-27T10:50:15.450Z,6.64
2023-02-27T10:51:15.489Z,6.69
2023-02-27T10:52:15.437Z,6.64
2023-02-27T10:53:15.437Z,6.81
2023-02-27T10:54:15.430Z,6.94
2023-02-27T10:55:15.413Z,7.06
2023-02-27T10:56:15.399Z,6.97
2023-02-27T10:57:15.390Z,6.99
2023-02-27T10:58:15.377Z,7.03
2023-02-27T10:59:15.365Z,7.16
2023-02-27T11:00:15.357Z,7.30
2023-02-27T11:01:15.395Z,7.30
2023-02-27T11:02:15.321Z,7.30
2023-02-27T11:03:15.350Z,7.34
2023-02-27T11:04:15.312Z,7.53
2023-02-27T11:05:15.305Z,7.67
2023-02-27T11:06:15.306Z,7.58
2023-02-27T11:07:15.352Z,7.55
2023-02-27T11:08:15.258Z,7.35
2023-02-27T11:09:15.253Z,7.09
2023-02-27T11:10:15.274Z,6.85
2023-02-27T11:11:15.237Z,6.84
2023-02-27T11:12:15.226Z,6.91
2023-02-27T11:13:15.228Z,6.89
2023-02-27T11:14:15.201Z,6.69
2023-02-27T11:15:15.199Z,6.76
2023-02-27T11:16:15.365Z,6.87
2023-02-27T11:17:15.168Z,6.98
2023-02-27T11:18:15.147Z,7.07
2023-02-27T11:19:15.179Z,7.17
2023-02-27T11:20:15.133Z,7.24
2023-02-27T11:21:15.112Z,7.34
2023-02-27T11:22:15.118Z,7.43
2023-02-27T11:23:15.123Z,7.35
2023-02-27T11:24:15.079Z,7.39
2023-02-27T11:25:15.117Z,7.23
2023-02-27T11:26:15.070Z,7.27
2023-02-27T11:27:15.062Z,7.30
2023-02-27T11:28:15.048Z,7.42
2023-02-27T11:29:15.157Z,7.53
2023-02-27T11:30:16.336Z,7.74
2023-02-27T11:31:15.114Z,7.86
2023-02-27T11:32:15.091Z,8.02
2023-02-27T11:33:15.000Z,7.61
2023-02-27T11:34:14.986Z,7.30
2023-02-27T11:35:14.987Z,7.07
2023-02-27T11:36:17.710Z,7.03
2023-02-27T11:37:14.951Z,7.03
2023-02-27T11:38:15.036Z,6.81
2023-02-27T11:39:14.965Z,6.62
2023-02-27T11:40:14.929Z,6.70
2023-02-27T11:41:14.911Z,6.76
2023-02-27T11:42:16.929Z,6.80
2023-02-27T11:43:14.918Z,7.20
2023-02-27T11:44:15.030Z,7.39
2023-02-27T11:45:14.885Z,7.67
2023-02-27T11:46:46.295Z,7.83
2023-02-27T11:47:15.991Z,7.93
2023-02-27T11:48:14.824Z,7.82
2023-02-27T11:49:14.822Z,8.00
2023-02-27T11:50:14.911Z,8.05
2023-02-27T11:51:14.808Z,8.18
2023-02-27T11:52:14.795Z,8.44
2023-02-27T11:53:14.789Z,8.70
2023-02-27T11:54:14.767Z,8.65
2023-02-27T11:55:14.746Z,8.53
2023-02-27T11:56:14.749Z,8.38
2023-02-27T11:57:14.768Z,8.45
2023-02-27T11:58:14.730Z,8.62
2023-02-27T11:59:14.723Z,8.61
2023-02-27T12:00:14.779Z,8.53
2023-02-27T12:01:14.702Z,8.52
2023-02-27T12:02:14.677Z,8.25
2023-02-27T12:03:14.716Z,8.18
2023-02-27T12:04:14.666Z,8.05
2023-02-27T12:05:14.684Z,7.85
2023-02-27T12:06:14.634Z,8.04
2023-02-27T12:07:14.641Z,8.29
2023-02-27T12:08:14.615Z,8.16
2023-02-27T12:09:14.913Z,8.23
2023-02-27T12:10:14.652Z,7.97
2023-02-27T12:11:14.937Z,7.83
2023-02-27T12:12:14.572Z,7.75
2023-02-27T12:13:14.584Z,7.95
2023-02-27T12:14:14.557Z,7.69
2023-02-27T12:15:14.545Z,7.42
2023-02-27T12:16:14.567Z,7.71
2023-02-27T12:17:14.540Z,8.07
2023-02-27T12:18:14.595Z,8.59
2023-02-27T12:19:14.507Z,8.91
2023-02-27T12:20:14.528Z,9.23
2023-02-27T12:21:14.505Z,9.50
2023-02-27T12:22:14.451Z,9.71
2023-02-27T12:23:14.452Z,9.76
2023-02-27T12:24:14.428Z,9.86
2023-02-27T12:25:14.456Z,9.90
2023-02-27T12:26:14.429Z,9.66
2023-02-27T12:27:14.401Z,9.42
2023-02-27T12:28:14.403Z,8.99
2023-02-27T12:29:14.411Z,9.02
2023-02-27T12:30:14.380Z,9.21
2023-02-27T12:31:14.439Z,9.56
2023-02-27T12:32:14.424Z,9.78
2023-02-27T12:33:14.353Z,10.09
2023-02-27T12:34:14.323Z,10.34
2023-02-27T12:35:14.358Z,10.60
2023-02-27T12:36:14.324Z,10.66
2023-02-27T12:37:14.299Z,10.85
2023-02-27T12:38:14.308Z,11.11
2023-02-27T12:39:14.284Z,11.28
2023-02-27T12:40:15.086Z,11.29
2023-02-27T12:41:14.896Z,11.32
2023-02-27T12:42:14.246Z,11.28
2023-02-27T12:43:14.221Z,11.22
2023-02-27T12:44:14.236Z,11.09
2023-02-27T12:45:14.206Z,10.66
2023-02-27T12:46:14.312Z,10.41
2023-02-27T12:47:14.169Z,9.71
2023-02-27T12:48:14.191Z,9.29
2023-02-27T12:49:14.175Z,8.95
2023-02-27T12:50:14.162Z,8.43
2023-02-27T12:51:14.135Z,8.40
2023-02-27T12:52:14.158Z,8.89
2023-02-27T12:53:14.146Z,8.89
2023-02-27T12:54:14.126Z,8.66
2023-02-27T12:55:14.106Z,8.47
2023-02-27T12:56:14.104Z,8.22
2023-02-27T12:57:14.072Z,7.95
2023-02-27T12:58:14.081Z,7.82
2023-02-27T12:59:14.055Z,7.77
2023-02-27T13:00:14.053Z,7.93
2023-02-27T13:01:14.110Z,7.92
2023-02-27T13:02:14.064Z,7.89
2023-02-27T13:03:14.974Z,7.82
2023-02-27T13:04:14.083Z,7.71
2023-02-27T13:05:14.010Z,7.95